sensor_id;sensor_type;location;lat;lon;timestamp;P1;durP1;ratioP1;P2;durP2;ratioP2
67164;SDS011;54093;50.014;19.984;2023-02-19T00:00:29;0.95;;;0.95;;
67164;SDS011;54093;50.014;19.984;2023-02-19T00:10:10;1.35;;;1.25;;
67164;SDS011;54093;50.014;19.984;2023-02-19T00:19:31;1.30;;;1.30;;
67164;SDS011;54093;50.014;19.984;2023-02-19T00:28:53;1.77;;;1.67;;
67164;SDS011;54093;50.014;19.984;2023-02-19T00:38:15;1.40;;;1.40;;
67164;SDS011;54093;50.014;19.984;2023-02-19T00:47:35;1.33;;;1.23;;
67164;SDS011;54093;50.014;19.984;2023-02-19T00:56:56;1.05;;;1.05;;
67164;SDS011;54093;50.014;19.984;2023-02-19T01:06:18;1.63;;;1.63;;
67164;SDS011;54093;50.014;19.984;2023-02-19T01:15:39;1.92;;;1.83;;
67164;SDS011;54093;50.014;19.984;2023-02-19T01:25:00;2.80;;;1.88;;
67164;SDS011;54093;50.014;19.984;2023-02-19T01:34:21;2.15;;;2.05;;
67164;SDS011;54093;50.014;19.984;2023-02-19T01:43:56;1.50;;;1.50;;
67164;SDS011;54093;50.014;19.984;2023-02-19T01:53:22;2.40;;;2.30;;
67164;SDS011;54093;50.014;19.984;2023-02-19T02:02:47;3.45;;;3.25;;
67164;SDS011;54093;50.014;19.984;2023-02-19T02:12:12;2.58;;;2.42;;
67164;SDS011;54093;50.014;19.984;2023-02-19T02:40:55;1.80;;;1.70;;
67164;SDS011;54093;50.014;19.984;2023-02-19T02:50:19;1.70;;;1.60;;
67164;SDS011;54093;50.014;19.984;2023-02-19T02:59:45;2.53;;;2.30;;
67164;SDS011;54093;50.014;19.984;2023-02-19T03:09:19;1.92;;;1.83;;
67164;SDS011;54093;50.014;19.984;2023-02-19T03:18:51;2.72;;;2.22;;
67164;SDS011;54093;50.014;19.984;2023-02-19T03:28:33;2.40;;;2.30;;
67164;SDS011;54093;50.014;19.984;2023-02-19T03:38:21;11.70;;;3.00;;
67164;SDS011;54093;50.014;19.984;2023-02-19T03:57:36;2.30;;;2.20;;
67164;SDS011;54093;50.014;19.984;2023-02-19T04:07:04;2.80;;;2.70;;
67164;SDS011;54093;50.014;19.984;2023-02-19T04:16:26;3.33;;;2.80;;
67164;SDS011;54093;50.014;19.984;2023-02-19T04:25:51;2.40;;;2.30;;
67164;SDS011;54093;50.014;19.984;2023-02-19T04:35:15;4.90;;;2.65;;
67164;SDS011;54093;50.014;19.984;2023-02-19T04:44:36;2.08;;;1.98;;
67164;SDS011;54093;50.014;19.984;2023-02-19T04:53:57;2.88;;;2.60;;
67164;SDS011;54093;50.014;19.984;2023-02-19T05:03:18;5.97;;;2.17;;
67164;SDS011;54093;50.014;19.984;2023-02-19T05:12:39;2.45;;;2.25;;
67164;SDS011;54093;50.014;19.984;2023-02-19T05:22:00;2.50;;;2.40;;
67164;SDS011;54093;50.014;19.984;2023-02-19T05:31:21;2.08;;;1.98;;
67164;SDS011;54093;50.014;19.984;2023-02-19T05:40:43;1.88;;;1.77;;
67164;SDS011;54093;50.014;19.984;2023-02-19T05:50:06;1.90;;;1.80;;
67164;SDS011;54093;50.014;19.984;2023-02-19T05:59:27;1.58;;;1.58;;
67164;SDS011;54093;50.014;19.984;2023-02-19T06:08:48;2.40;;;2.30;;
67164;SDS011;54093;50.014;19.984;2023-02-19T06:18:09;2.25;;;2.15;;
67164;SDS011;54093;50.014;19.984;2023-02-19T06:27:30;2.58;;;2.47;;
67164;SDS011;54093;50.014;19.984;2023-02-19T06:36:51;3.08;;;2.90;;
67164;SDS011;54093;50.014;19.984;2023-02-19T06:46:12;3.78;;;3.58;;
67164;SDS011;54093;50.014;19.984;2023-02-19T06:55:33;5.43;;;4.93;;
67164;SDS011;54093;50.014;19.984;2023-02-19T07:04:54;4.43;;;4.13;;
67164;SDS011;54093;50.014;19.984;2023-02-19T07:14:15;5.85;;;5.10;;
67164;SDS011;54093;50.014;19.984;2023-02-19T07:23:37;6.35;;;5.80;;
67164;SDS011;54093;50.014;19.984;2023-02-19T07:32:58;6.07;;;5.40;;
67164;SDS011;54093;50.014;19.984;2023-02-19T07:42:20;6.97;;;6.40;;
67164;SDS011;54093;50.014;19.984;2023-02-19T07:51:41;6.05;;;5.65;;
67164;SDS011;54093;50.014;19.984;2023-02-19T08:01:07;6.22;;;5.63;;
67164;SDS011;54093;50.014;19.984;2023-02-19T08:10:38;7.80;;;6.90;;
67164;SDS011;54093;50.014;19.984;2023-02-19T08:20:18;6.50;;;5.90;;
67164;SDS011;54093;50.014;19.984;2023-02-19T08:29:39;9.05;;;8.15;;
67164;SDS011;54093;50.014;19.984;2023-02-19T08:39:00;5.20;;;4.90;;
67164;SDS011;54093;50.014;19.984;2023-02-19T08:48:22;5.47;;;5.03;;
67164;SDS011;54093;50.014;19.984;2023-02-19T08:57:43;6.35;;;5.78;;
67164;SDS011;54093;50.014;19.984;2023-02-19T09:07:04;5.45;;;5.05;;
67164;SDS011;54093;50.014;19.984;2023-02-19T09:16:30;6.32;;;5.93;;
67164;SDS011;54093;50.014;19.984;2023-02-19T09:25:58;4.90;;;4.60;;
67164;SDS011;54093;50.014;19.984;2023-02-19T09:35:20;4.10;;;3.80;;
67164;SDS011;54093;50.014;19.984;2023-02-19T09:44:42;5.43;;;3.45;;
67164;SDS011;54093;50.014;19.984;2023-02-19T10:03:40;1.50;;;1.40;;
67164;SDS011;54093;50.014;19.984;2023-02-19T10:22:44;1.23;;;1.23;;
67164;SDS011;54093;50.014;19.984;2023-02-19T10:41:40;3.92;;;1.52;;
67164;SDS011;54093;50.014;19.984;2023-02-19T10:51:03;1.60;;;1.55;;
67164;SDS011;54093;50.014;19.984;2023-02-19T11:00:28;2.60;;;1.85;;
67164;SDS011;54093;50.014;19.984;2023-02-19T11:09:50;1.27;;;1.27;;
67164;SDS011;54093;50.014;19.984;2023-02-19T11:19:35;1.23;;;1.17;;
67164;SDS011;54093;50.014;19.984;2023-02-19T11:28:59;1.07;;;1.00;;
67164;SDS011;54093;50.014;19.984;2023-02-19T11:38:22;1.05;;;1.05;;
67164;SDS011;54093;50.014;19.984;2023-02-19T11:47:53;1.45;;;1.35;;
67164;SDS011;54093;50.014;19.984;2023-02-19T11:57:45;0.95;;;0.95;;
67164;SDS011;54093;50.014;19.984;2023-02-19T12:07:22;1.85;;;1.75;;
67164;SDS011;54093;50.014;19.984;2023-02-19T12:17:03;1.30;;;1.20;;
67164;SDS011;54093;50.014;19.984;2023-02-19T12:36:40;2.08;;;1.98;;
67164;SDS011;54093;50.014;19.984;2023-02-19T12:46:16;2.35;;;2.15;;
67164;SDS011;54093;50.014;19.984;2023-02-19T12:55:43;1.63;;;1.63;;
67164;SDS011;54093;50.014;19.984;2023-02-19T13:05:14;2.65;;;1.98;;
67164;SDS011;54093;50.014;19.984;2023-02-19T13:14:40;1.42;;;1.42;;
67164;SDS011;54093;50.014;19.984;2023-02-19T13:24:06;3.70;;;2.70;;
67164;SDS011;54093;50.014;19.984;2023-02-19T13:43:34;4.97;;;4.05;;
67164;SDS011;54093;50.014;19.984;2023-02-19T13:52:58;4.43;;;3.90;;
67164;SDS011;54093;50.014;19.984;2023-02-19T14:02:31;2.45;;;1.83;;
67164;SDS011;54093;50.014;19.984;2023-02-19T14:21:34;4.43;;;2.05;;
67164;SDS011;54093;50.014;19.984;2023-02-19T14:40:39;2.88;;;2.65;;
67164;SDS011;54093;50.014;19.984;2023-02-19T14:50:04;2.22;;;1.67;;
67164;SDS011;54093;50.014;19.984;2023-02-19T14:59:29;3.03;;;2.30;;
67164;SDS011;54093;50.014;19.984;2023-02-19T15:08:51;3.55;;;3.15;;
67164;SDS011;54093;50.014;19.984;2023-02-19T15:18:17;4.18;;;3.17;;
67164;SDS011;54093;50.014;19.984;2023-02-19T15:27:40;3.45;;;2.13;;
67164;SDS011;54093;50.014;19.984;2023-02-19T15:37:02;4.53;;;3.08;;
67164;SDS011;54093;50.014;19.984;2023-02-19T15:46:26;3.20;;;3.00;;
67164;SDS011;54093;50.014;19.984;2023-02-19T16:05:28;2.88;;;2.67;;
67164;SDS011;54093;50.014;19.984;2023-02-19T16:14:50;2.45;;;2.25;;
67164;SDS011;54093;50.014;19.984;2023-02-19T16:24:12;2.78;;;2.33;;
67164;SDS011;54093;50.014;19.984;2023-02-19T16:33:42;2.15;;;2.05;;
67164;SDS011;54093;50.014;19.984;2023-02-19T16:52:34;3.22;;;2.53;;
67164;SDS011;54093;50.014;19.984;2023-02-19T17:01:58;3.53;;;3.22;;
67164;SDS011;54093;50.014;19.984;2023-02-19T17:11:19;5.15;;;3.80;;
67164;SDS011;54093;50.014;19.984;2023-02-19T17:20:41;3.80;;;2.85;;
67164;SDS011;54093;50.014;19.984;2023-02-19T17:30:10;3.53;;;3.22;;
67164;SDS011;54093;50.014;19.984;2023-02-19T17:39:37;8.80;;;2.92;;
67164;SDS011;54093;50.014;19.984;2023-02-19T17:48:58;3.33;;;3.03;;
67164;SDS011;54093;50.014;19.984;2023-02-19T17:58:19;4.63;;;4.20;;
67164;SDS011;54093;50.014;19.984;2023-02-19T18:07:40;11.07;;;3.75;;
67164;SDS011;54093;50.014;19.984;2023-02-19T18:17:01;3.90;;;2.35;;
67164;SDS011;54093;50.014;19.984;2023-02-19T18:26:22;4.10;;;2.53;;
67164;SDS011;54093;50.014;19.984;2023-02-19T18:35:44;3.25;;;3.03;;
67164;SDS011;54093;50.014;19.984;2023-02-19T18:45:08;2.50;;;2.40;;
67164;SDS011;54093;50.014;19.984;2023-02-19T18:54:30;4.70;;;2.35;;
67164;SDS011;54093;50.014;19.984;2023-02-19T19:03:51;2.05;;;1.92;;
67164;SDS011;54093;50.014;19.984;2023-02-19T19:13:12;3.80;;;3.03;;
67164;SDS011;54093;50.014;19.984;2023-02-19T19:22:33;2.97;;;2.70;;
67164;SDS011;54093;50.014;19.984;2023-02-19T19:31:54;5.57;;;3.63;;
67164;SDS011;54093;50.014;19.984;2023-02-19T19:41:16;3.75;;;3.40;;
67164;SDS011;54093;50.014;19.984;2023-02-19T19:50:38;8.48;;;2.90;;
67164;SDS011;54093;50.014;19.984;2023-02-19T19:59:59;6.47;;;2.95;;
67164;SDS011;54093;50.014;19.984;2023-02-19T20:09:20;7.68;;;3.83;;
67164;SDS011;54093;50.014;19.984;2023-02-19T20:18:45;5.40;;;2.75;;
67164;SDS011;54093;50.014;19.984;2023-02-19T20:28:05;4.38;;;3.63;;
67164;SDS011;54093;50.014;19.984;2023-02-19T20:37:26;5.57;;;4.10;;
67164;SDS011;54093;50.014;19.984;2023-02-19T20:46:48;3.25;;;2.97;;
67164;SDS011;54093;50.014;19.984;2023-02-19T20:56:11;3.42;;;3.00;;
67164;SDS011;54093;50.014;19.984;2023-02-19T21:05:33;5.05;;;2.92;;
67164;SDS011;54093;50.014;19.984;2023-02-19T21:14:54;5.85;;;2.50;;
67164;SDS011;54093;50.014;19.984;2023-02-19T21:24:15;2.80;;;2.50;;
67164;SDS011;54093;50.014;19.984;2023-02-19T21:33:36;4.47;;;3.88;;
67164;SDS011;54093;50.014;19.984;2023-02-19T21:42:57;3.85;;;3.50;;
67164;SDS011;54093;50.014;19.984;2023-02-19T21:52:18;3.20;;;3.00;;
67164;SDS011;54093;50.014;19.984;2023-02-19T22:01:39;5.13;;;3.38;;
67164;SDS011;54093;50.014;19.984;2023-02-19T22:11:01;8.23;;;4.95;;
67164;SDS011;54093;50.014;19.984;2023-02-19T22:20:22;6.72;;;4.38;;
67164;SDS011;54093;50.014;19.984;2023-02-19T22:29:43;5.47;;;4.32;;
67164;SDS011;54093;50.014;19.984;2023-02-19T22:39:07;4.00;;;3.67;;
67164;SDS011;54093;50.014;19.984;2023-02-19T22:48:35;10.50;;;4.57;;
67164;SDS011;54093;50.014;19.984;2023-02-19T22:57:56;3.38;;;3.08;;
67164;SDS011;54093;50.014;19.984;2023-02-19T23:07:17;5.85;;;3.22;;
67164;SDS011;54093;50.014;19.984;2023-02-19T23:16:38;8.70;;;3.45;;
67164;SDS011;54093;50.014;19.984;2023-02-19T23:25:58;2.83;;;2.63;;
67164;SDS011;54093;50.014;19.984;2023-02-19T23:35:20;4.55;;;3.65;;
67164;SDS011;54093;50.014;19.984;2023-02-19T23:44:41;5.90;;;3.55;;
67164;SDS011;54093;50.014;19.984;2023-02-19T23:54:05;6.63;;;3.35;;
